Nyk Diana — 3EOS4 — position and weather

sailwx.info

Track history (hours):
 
Tides and Currents Weather Stations Pressure Air Temp Water Temp Dewpoint Dewpoint Depression Visibility Wind Speed Wind Dir Waves Ship Positions

Nyk Diana

Last reported at 2017-Oct-16 14:52 UTC. Time now 2017-Oct-18 16:41 UTC.
Position N 38°10' W 126°34'.

Length 294 m; draft 10.6 m.

Type: Ship. MMSI: 372319000.

Date/timePositionNaut miles runAvg speedWind from/ knotsBaromVisibWave heightAir tempDewpointWater temp
2017-Oct-16 14:52N 38°10' W 126°34'1213.2
2017-Oct-16 14:00N 38°10' W 126°19'613.2
2017-Oct-16 13:30N 38°10' W 126°11'713.4
2017-Oct-16 13:00N 38°10' W 126°03'714.2
2017-Oct-16 12:30N 38°10' W 125°54'714.3
2017-Oct-16 12:00N 38°10' W 125°45'714.7
2017-Oct-16 11:30N 38°10' W 125°35'714.4
2017-Oct-16 11:00N 38°10' W 125°26'714.2
2017-Oct-16 10:30N 38°10' W 125°17'713.9
2017-Oct-16 10:00N 38°10' W 125°08'713.9
2017-Oct-16 09:30N 38°10' W 124°59'713.4
2017-Oct-16 09:00N 38°10' W 124°51'713.5
2017-Oct-16 08:30N 38°10' W 124°42'713.3
2017-Oct-16 08:00N 38°10' W 124°34'612.9
2017-Oct-16 07:30N 38°10' W 124°26'713.1
2017-Oct-16 07:00N 38°10' W 124°17'713.4
2017-Oct-16 06:30N 38°10' W 124°09'713.5
2017-Oct-16 06:00N 38°10' W 124°00'713.4
2017-Oct-16 05:30N 38°10' W 123°52'713.4
2017-Oct-16 05:00N 38°10' W 123°43'713.3
2017-Oct-16 04:30N 38°10' W 123°35'713.0
2017-Oct-16 04:00N 38°09' W 123°26'510.8
2017-Oct-16 03:30N 38°08' W 123°20'611.7
2017-Oct-16 03:00N 38°04' W 123°15'611.8
2017-Oct-16 02:30N 37°59' W 123°10'612.0
2017-Oct-16 02:00N 37°56' W 123°04'612.0
2017-Oct-16 01:30N 37°53' W 122°57'611.9
2017-Oct-16 01:00N 37°50' W 122°50'611.8
2017-Oct-16 00:30N 37°47' W 122°44'611.1
2017-Oct-16 00:01N 37°46' W 122°37'815.2
2017-Oct-15 23:31N 37°49' W 122°28'5 9.7
2017-Oct-15 23:01N 37°48' W 122°22'2 4.5
2017-Oct-15 22:28N 37°48' W 122°19'0 0.0
2017-Oct-15 22:01N 37°48' W 122°19'0 0.0
2017-Oct-15 21:28N 37°48' W 122°19'0 0.0
2017-Oct-15 20:58N 37°48' W 122°19'0 0.0
2017-Oct-15 20:28N 37°48' W 122°19'0 0.0
2017-Oct-15 20:01N 37°48' W 122°19'0 0.0
2017-Oct-15 19:28N 37°48' W 122°19'0 0.0
2017-Oct-15 18:58N 37°48' W 122°19'0 0.0
2017-Oct-15 18:28N 37°48' W 122°19'0 0.0
2017-Oct-15 18:01N 37°48' W 122°19'0 0.0
2017-Oct-15 17:31N 37°48' W 122°19'0 0.0
2017-Oct-15 16:58N 37°48' W 122°19'0 0.0
2017-Oct-15 16:28N 37°48' W 122°19'0 0.0
2017-Oct-15 15:58N 37°48' W 122°19'0 0.0
2017-Oct-15 15:28N 37°48' W 122°19'0 0.0
2017-Oct-15 14:58N 37°48' W 122°19'0 0.0
2017-Oct-15 13:58N 37°48' W 122°19'0 0.0
2017-Oct-15 13:28N 37°48' W 122°19'0 0.0
2017-Oct-15 13:01N 37°48' W 122°19'1 2.6
2017-Oct-15 12:30N 37°48' W 122°18'0 0.9
2017-Oct-15 12:00N 37°48' W 122°18'4 7.0
2017-Oct-15 11:31N 37°48' W 122°23'5 9.3
2017-Oct-15 11:00N 37°49' W 122°28'510.8
2017-Oct-15 10:30N 37°47' W 122°35'611.3
2017-Oct-15 10:01N 37°45' W 122°41'4 7.1
2017-Oct-15 09:30N 37°41' W 122°40'2 3.7
2017-Oct-15 09:00N 37°39' W 122°40'5 9.7
2017-Oct-15 08:30N 37°35' W 122°40'713.7
2017-Oct-15 08:00N 37°28' W 122°40'1015.8
2017-Oct-15 07:23N 37°18' W 122°40'818.3
2017-Oct-15 06:57N 37°10' W 122°40'919.7
2017-Oct-15 06:30N 37°01' W 122°40'1119.5
2017-Oct-15 05:58N 36°51' W 122°37'2519.9
2017-Oct-15 04:41N 36°29' W 122°21'420.2
2017-Oct-15 04:30N 36°26' W 122°18'1020.0
2017-Oct-15 04:00N 36°17' W 122°12'1020.2
2017-Oct-15 03:30N 36°08' W 122°06'5620.4
2017-Oct-15 00:45N 35°20' W 121°31'519.7
2017-Oct-15 00:30N 35°16' W 121°28'1019.8
2017-Oct-15 00:00N 35°07' W 121°22'1020.3
2017-Oct-14 23:30N 34°58' W 121°16'1020.3
2017-Oct-14 23:00N 34°50' W 121°09'1020.5
2017-Oct-14 22:30N 34°41' W 121°03'1020.1
2017-Oct-14 22:00N 34°32' W 120°57'714.3
2017-Oct-14 21:30N 34°26' W 120°52'610.7
2017-Oct-14 20:56N 34°24' W 120°45'510.3
2017-Oct-14 20:29N 34°23' W 120°39'510.5
2017-Oct-14 20:01N 34°22' W 120°33'711.6
2017-Oct-14 19:26N 34°20' W 120°26'613.1
2017-Oct-14 19:01N 34°19' W 120°19'815.1
2017-Oct-14 18:30N 34°17' W 120°10'917.4
2017-Oct-14 17:59N 34°14' W 119°60'918.1
2017-Oct-14 17:30N 34°12' W 119°50'918.9
2017-Oct-14 17:00N 34°10' W 119°39'1121.7
2017-Oct-14 16:30N 34°07' W 119°26'1121.6
2017-Oct-14 16:00N 34°03' W 119°14'1019.2
2017-Oct-14 15:30N 33°59' W 119°04'713.8
2017-Oct-14 15:00N 33°55' W 118°56'611.7
2017-Oct-14 14:30N 33°53' W 118°50'611.5
2017-Oct-14 14:00N 33°50' W 118°44'611.2
2017-Oct-14 13:31N 33°47' W 118°38'611.1
2017-Oct-14 13:00N 33°44' W 118°33'611.5
2017-Oct-14 12:30N 33°41' W 118°26'611.5
2017-Oct-14 12:00N 33°38' W 118°20'5 9.7
2017-Oct-14 11:31N 33°39' W 118°15'4 7.6
2017-Oct-14 11:00N 33°43' W 118°16'2 4.7
2017-Oct-14 10:31N 33°45' W 118°16'1 1.1
2017-Oct-14 09:56N 33°45' W 118°16'0 0.0
2017-Oct-14 09:26N 33°45' W 118°16'0 0.0
2017-Oct-14 08:59N 33°45' W 118°16'0 0.1
2017-Oct-14 08:29N 33°45' W 118°16'0 0.1
2017-Oct-14 07:59N 33°45' W 118°16'0 0.0
2017-Oct-14 07:29N 33°45' W 118°16'0 0.0
2017-Oct-14 06:59N 33°45' W 118°16'0 0.0
2017-Oct-14 06:29N 33°45' W 118°16'0 0.0
2017-Oct-14 05:59N 33°45' W 118°16'0 0.0
2017-Oct-14 05:20N 33°45' W 118°16'0 0.1
2017-Oct-14 04:59N 33°45' W 118°16'0 0.1
2017-Oct-14 04:23N 33°45' W 118°16'0 0.0
2017-Oct-14 03:56N 33°45' W 118°16'0 0.0
2017-Oct-14 03:29N 33°45' W 118°16'0 0.0
2017-Oct-14 02:56N 33°45' W 118°16'0 0.0
2017-Oct-14 02:29N 33°45' W 118°16'0 0.0
2017-Oct-14 01:59N 33°45' W 118°16'0 0.0
2017-Oct-14 01:29N 33°45' W 118°16'0 0.0
2017-Oct-14 00:56N 33°45' W 118°16'0 0.0
2017-Oct-14 00:29N 33°45' W 118°16'0 0.0
2017-Oct-13 23:56N 33°45' W 118°16'0 0.0
2017-Oct-13 23:29N 33°45' W 118°16'0 0.0
2017-Oct-13 22:56N 33°45' W 118°16'0 0.0
2017-Oct-13 22:08N 33°45' W 118°16'0 0.0
2017-Oct-13 21:56N 33°45' W 118°16'0 0.0
2017-Oct-13 21:29N 33°45' W 118°16'0 0.0
2017-Oct-13 20:50N 33°45' W 118°16'0 0.0
2017-Oct-13 20:20N 33°45' W 118°16'0 0.0
2017-Oct-13 19:59N 33°45' W 118°16'0 0.0
2017-Oct-13 19:29N 33°45' W 118°16'0 0.0
2017-Oct-13 18:56N 33°45' W 118°16'0 0.0
2017-Oct-13 18:17N 33°45' W 118°16'0 0.0
2017-Oct-13 17:53N 33°45' W 118°16'0 0.0
2017-Oct-13 17:23N 33°45' W 118°16'0 0.0
2017-Oct-13 16:38N 33°45' W 118°16'0 0.0
2017-Oct-13 15:41N 33°45' W 118°16'0 0.0
2017-Oct-13 15:17N 33°45' W 118°16'0 0.0
2017-Oct-13 14:56N 33°45' W 118°16'0 0.0
2017-Oct-13 14:29N 33°45' W 118°16'0 0.0
2017-Oct-13 13:59N 33°45' W 118°16'0 0.0
2017-Oct-13 13:17N 33°45' W 118°16'0 0.0
2017-Oct-13 12:59N 33°45' W 118°16'0 0.0
2017-Oct-13 12:20N 33°45' W 118°16'0 0.0
2017-Oct-13 11:56N 33°45' W 118°16'0 0.0
2017-Oct-13 11:29N 33°45' W 118°16'0 0.0
2017-Oct-13 10:56N 33°45' W 118°16'0 0.0
2017-Oct-13 10:29N 33°45' W 118°16'0 0.0
2017-Oct-13 09:59N 33°45' W 118°16'0 0.0
2017-Oct-13 09:26N 33°45' W 118°16'0 0.0
2017-Oct-13 08:56N 33°45' W 118°16'0 0.0
2017-Oct-13 08:23N 33°45' W 118°16'0 0.0
2017-Oct-13 07:56N 33°45' W 118°16'0 0.0
2017-Oct-13 07:26N 33°45' W 118°16'0 0.0
2017-Oct-13 06:59N 33°45' W 118°16'0 0.0
2017-Oct-13 06:29N 33°45' W 118°16'0 0.0
2017-Oct-13 05:56N 33°45' W 118°16'0 0.1
2017-Oct-13 05:26N 33°45' W 118°16'0 0.1
2017-Oct-13 04:59N 33°45' W 118°16'0 0.0
2017-Oct-13 04:11N 33°45' W 118°16'0 0.0
2017-Oct-13 03:59N 33°45' W 118°16'0 0.0
2017-Oct-13 03:23N 33°45' W 118°16'0 0.0
2017-Oct-13 02:56N 33°45' W 118°16'0 0.0
2017-Oct-13 02:29N 33°45' W 118°16'0 0.0
2017-Oct-13 01:59N 33°45' W 118°16'0 0.0
2017-Oct-13 01:29N 33°45' W 118°16'0 0.0
2017-Oct-13 00:59N 33°45' W 118°16'0 0.0
2017-Oct-13 00:29N 33°45' W 118°16'0 0.0
2017-Oct-12 23:59N 33°45' W 118°16'0 0.0
2017-Oct-12 23:29N 33°45' W 118°16'0 0.0
2017-Oct-12 22:56N 33°45' W 118°16'0 0.0
2017-Oct-12 22:26N 33°45' W 118°16'0 0.0
2017-Oct-12 21:02N 33°45' W 118°16'0 0.0
2017-Oct-12 19:17N 33°45' W 118°16'0 0.0
2017-Oct-12 15:56N 33°45' W 118°16'0 0.0
2017-Oct-12 15:20N 33°45' W 118°16'0 0.0
2017-Oct-12 14:50N 33°45' W 118°16'0 0.0
2017-Oct-12 12:02N 33°45' W 118°16'0 0.0
2017-Oct-12 12:00N 33°45' W 118°16'1 1.9
2017-Oct-12 11:29N 33°45' W 118°16'3 5.8
2017-Oct-12 11:00N 33°42' W 118°15'4 7.8
2017-Oct-12 10:30N 33°39' W 118°14'3 5.2
2017-Oct-12 10:00N 33°37' W 118°16'5 9.3
2017-Oct-12 09:31N 33°36' W 118°21'510.8
2017-Oct-12 09:00N 33°39' W 118°27'510.8
2017-Oct-12 08:30N 33°42' W 118°32'510.6
2017-Oct-12 08:01N 33°45' W 118°38'510.9
2017-Oct-12 07:31N 33°47' W 118°44'510.8
2017-Oct-12 07:00N 33°50' W 118°49'611.6
2017-Oct-12 06:30N 33°53' W 118°55'611.6
2017-Oct-12 06:01N 33°56' W 119°01'611.6
2017-Oct-12 05:31N 33°59' W 119°08'611.5
2017-Oct-12 05:00N 34°01' W 119°14'612.1
2017-Oct-12 04:30N 34°03' W 119°21'611.9
2017-Oct-12 04:00N 34°05' W 119°28'612.4
2017-Oct-12 03:30N 34°06' W 119°35'612.4
2017-Oct-12 03:00N 34°08' W 119°42'612.4
2017-Oct-12 02:30N 34°10' W 119°49'612.5
2017-Oct-12 02:01N 34°11' W 119°57'612.2
2017-Oct-12 01:30N 34°13' W 120°04'612.3
2017-Oct-12 01:00N 34°15' W 120°11'712.6
2017-Oct-12 00:29N 34°17' W 120°19'612.7
2017-Oct-12 00:00N 34°18' W 120°26'611.4
2017-Oct-11 23:31N 34°19' W 120°32'5 9.8
2017-Oct-11 23:00N 34°21' W 120°38'5 9.6
2017-Oct-11 22:30N 34°22' W 120°44'5 9.8
2017-Oct-11 22:00N 34°24' W 120°49'510.5
2017-Oct-11 21:30N 34°25' W 120°55'3 6.4
2017-Oct-11 20:59N 34°26' W 120°59'0 0.6
2017-Oct-11 20:30N 34°26' W 120°60'0 0.5
2017-Oct-11 20:00N 34°26' W 120°60'0 0.7
2017-Oct-11 19:30N 34°26' W 121°00'2 5.0
2017-Oct-11 19:00N 34°28' W 121°02'5 9.3
2017-Oct-11 18:30N 34°30' W 121°07'510.7
2017-Oct-11 18:00N 34°33' W 121°13'714.0
2017-Oct-11 17:30N 34°37' W 121°20'713.9
2017-Oct-11 17:01N 34°41' W 121°27'28414.5
2017-Oct-10 21:28N 37°16' W 126°21'5113.8
2017-Oct-10 17:45N 37°45' W 127°14'513.8
2017-Oct-10 17:24N 37°48' W 127°19'613.8
2017-Oct-10 16:56N 37°51' W 127°26'  
Track history (hours):
 
Tides and Currents Weather Stations Pressure Air Temp Water Temp Dewpoint Dewpoint Depression Visibility Wind Speed Wind Dir Waves Ship Positions

Nyk Diana

Last reported at 2017-Oct-16 14:52 UTC. Time now 2017-Oct-18 16:41 UTC.
Position N 38°10' W 126°34'.

Length 294 m; draft 10.6 m.

Type: Ship. MMSI: 372319000.

Date/timePositionNaut miles runAvg speedWind from/ knotsBaromVisibWave heightAir tempDewpointWater temp
2017-Oct-16 14:52N 38°10' W 126°34'1213.2
2017-Oct-16 14:00N 38°10' W 126°19'613.2
2017-Oct-16 13:30N 38°10' W 126°11'713.4
2017-Oct-16 13:00N 38°10' W 126°03'714.2
2017-Oct-16 12:30N 38°10' W 125°54'714.3
2017-Oct-16 12:00N 38°10' W 125°45'714.7
2017-Oct-16 11:30N 38°10' W 125°35'714.4
2017-Oct-16 11:00N 38°10' W 125°26'714.2
2017-Oct-16 10:30N 38°10' W 125°17'713.9
2017-Oct-16 10:00N 38°10' W 125°08'713.9
2017-Oct-16 09:30N 38°10' W 124°59'713.4
2017-Oct-16 09:00N 38°10' W 124°51'713.5
2017-Oct-16 08:30N 38°10' W 124°42'713.3
2017-Oct-16 08:00N 38°10' W 124°34'612.9
2017-Oct-16 07:30N 38°10' W 124°26'713.1
2017-Oct-16 07:00N 38°10' W 124°17'713.4
2017-Oct-16 06:30N 38°10' W 124°09'713.5
2017-Oct-16 06:00N 38°10' W 124°00'713.4
2017-Oct-16 05:30N 38°10' W 123°52'713.4
2017-Oct-16 05:00N 38°10' W 123°43'713.3
2017-Oct-16 04:30N 38°10' W 123°35'713.0
2017-Oct-16 04:00N 38°09' W 123°26'510.8
2017-Oct-16 03:30N 38°08' W 123°20'611.7
2017-Oct-16 03:00N 38°04' W 123°15'611.8
2017-Oct-16 02:30N 37°59' W 123°10'612.0
2017-Oct-16 02:00N 37°56' W 123°04'612.0
2017-Oct-16 01:30N 37°53' W 122°57'611.9
2017-Oct-16 01:00N 37°50' W 122°50'611.8
2017-Oct-16 00:30N 37°47' W 122°44'611.1
2017-Oct-16 00:01N 37°46' W 122°37'815.2
2017-Oct-15 23:31N 37°49' W 122°28'5 9.7
2017-Oct-15 23:01N 37°48' W 122°22'2 4.5
2017-Oct-15 22:28N 37°48' W 122°19'0 0.0
2017-Oct-15 22:01N 37°48' W 122°19'0 0.0
2017-Oct-15 21:28N 37°48' W 122°19'0 0.0
2017-Oct-15 20:58N 37°48' W 122°19'0 0.0
2017-Oct-15 20:28N 37°48' W 122°19'0 0.0
2017-Oct-15 20:01N 37°48' W 122°19'0 0.0
2017-Oct-15 19:28N 37°48' W 122°19'0 0.0
2017-Oct-15 18:58N 37°48' W 122°19'0 0.0
2017-Oct-15 18:28N 37°48' W 122°19'0 0.0
2017-Oct-15 18:01N 37°48' W 122°19'0 0.0
2017-Oct-15 17:31N 37°48' W 122°19'0 0.0
2017-Oct-15 16:58N 37°48' W 122°19'0 0.0
2017-Oct-15 16:28N 37°48' W 122°19'0 0.0
2017-Oct-15 15:58N 37°48' W 122°19'0 0.0
2017-Oct-15 15:28N 37°48' W 122°19'0 0.0
2017-Oct-15 14:58N 37°48' W 122°19'0 0.0
2017-Oct-15 13:58N 37°48' W 122°19'0 0.0
2017-Oct-15 13:28N 37°48' W 122°19'0 0.0
2017-Oct-15 13:01N 37°48' W 122°19'1 2.6
2017-Oct-15 12:30N 37°48' W 122°18'0 0.9
2017-Oct-15 12:00N 37°48' W 122°18'4 7.0
2017-Oct-15 11:31N 37°48' W 122°23'5 9.3
2017-Oct-15 11:00N 37°49' W 122°28'510.8
2017-Oct-15 10:30N 37°47' W 122°35'611.3
2017-Oct-15 10:01N 37°45' W 122°41'4 7.1
2017-Oct-15 09:30N 37°41' W 122°40'2 3.7
2017-Oct-15 09:00N 37°39' W 122°40'5 9.7
2017-Oct-15 08:30N 37°35' W 122°40'713.7
2017-Oct-15 08:00N 37°28' W 122°40'1015.8
2017-Oct-15 07:23N 37°18' W 122°40'818.3
2017-Oct-15 06:57N 37°10' W 122°40'919.7
2017-Oct-15 06:30N 37°01' W 122°40'1119.5
2017-Oct-15 05:58N 36°51' W 122°37'2519.9
2017-Oct-15 04:41N 36°29' W 122°21'420.2
2017-Oct-15 04:30N 36°26' W 122°18'1020.0
2017-Oct-15 04:00N 36°17' W 122°12'1020.2
2017-Oct-15 03:30N 36°08' W 122°06'5620.4
2017-Oct-15 00:45N 35°20' W 121°31'519.7
2017-Oct-15 00:30N 35°16' W 121°28'1019.8
2017-Oct-15 00:00N 35°07' W 121°22'1020.3
2017-Oct-14 23:30N 34°58' W 121°16'1020.3
2017-Oct-14 23:00N 34°50' W 121°09'1020.5
2017-Oct-14 22:30N 34°41' W 121°03'1020.1
2017-Oct-14 22:00N 34°32' W 120°57'714.3
2017-Oct-14 21:30N 34°26' W 120°52'610.7
2017-Oct-14 20:56N 34°24' W 120°45'510.3
2017-Oct-14 20:29N 34°23' W 120°39'510.5
2017-Oct-14 20:01N 34°22' W 120°33'711.6
2017-Oct-14 19:26N 34°20' W 120°26'613.1
2017-Oct-14 19:01N 34°19' W 120°19'815.1
2017-Oct-14 18:30N 34°17' W 120°10'917.4
2017-Oct-14 17:59N 34°14' W 119°60'918.1
2017-Oct-14 17:30N 34°12' W 119°50'918.9
2017-Oct-14 17:00N 34°10' W 119°39'1121.7
2017-Oct-14 16:30N 34°07' W 119°26'1121.6
2017-Oct-14 16:00N 34°03' W 119°14'1019.2
2017-Oct-14 15:30N 33°59' W 119°04'713.8
2017-Oct-14 15:00N 33°55' W 118°56'611.7
2017-Oct-14 14:30N 33°53' W 118°50'611.5
2017-Oct-14 14:00N 33°50' W 118°44'611.2
2017-Oct-14 13:31N 33°47' W 118°38'611.1
2017-Oct-14 13:00N 33°44' W 118°33'611.5
2017-Oct-14 12:30N 33°41' W 118°26'611.5
2017-Oct-14 12:00N 33°38' W 118°20'5 9.7
2017-Oct-14 11:31N 33°39' W 118°15'4 7.6
2017-Oct-14 11:00N 33°43' W 118°16'2 4.7
2017-Oct-14 10:31N 33°45' W 118°16'1 1.1
2017-Oct-14 09:56N 33°45' W 118°16'0 0.0
2017-Oct-14 09:26N 33°45' W 118°16'0 0.0
2017-Oct-14 08:59N 33°45' W 118°16'0 0.1
2017-Oct-14 08:29N 33°45' W 118°16'0 0.1
2017-Oct-14 07:59N 33°45' W 118°16'0 0.0
2017-Oct-14 07:29N 33°45' W 118°16'0 0.0
2017-Oct-14 06:59N 33°45' W 118°16'0 0.0
2017-Oct-14 06:29N 33°45' W 118°16'0 0.0
2017-Oct-14 05:59N 33°45' W 118°16'0 0.0
2017-Oct-14 05:20N 33°45' W 118°16'0 0.1
2017-Oct-14 04:59N 33°45' W 118°16'0 0.1
2017-Oct-14 04:23N 33°45' W 118°16'0 0.0
2017-Oct-14 03:56N 33°45' W 118°16'0 0.0
2017-Oct-14 03:29N 33°45' W 118°16'0 0.0
2017-Oct-14 02:56N 33°45' W 118°16'0 0.0
2017-Oct-14 02:29N 33°45' W 118°16'0 0.0
2017-Oct-14 01:59N 33°45' W 118°16'0 0.0
2017-Oct-14 01:29N 33°45' W 118°16'0 0.0
2017-Oct-14 00:56N 33°45' W 118°16'0 0.0
2017-Oct-14 00:29N 33°45' W 118°16'0 0.0
2017-Oct-13 23:56N 33°45' W 118°16'0 0.0
2017-Oct-13 23:29N 33°45' W 118°16'0 0.0
2017-Oct-13 22:56N 33°45' W 118°16'0 0.0
2017-Oct-13 22:08N 33°45' W 118°16'0 0.0
2017-Oct-13 21:56N 33°45' W 118°16'0 0.0
2017-Oct-13 21:29N 33°45' W 118°16'0 0.0
2017-Oct-13 20:50N 33°45' W 118°16'0 0.0
2017-Oct-13 20:20N 33°45' W 118°16'0 0.0
2017-Oct-13 19:59N 33°45' W 118°16'0 0.0
2017-Oct-13 19:29N 33°45' W 118°16'0 0.0
2017-Oct-13 18:56N 33°45' W 118°16'0 0.0
2017-Oct-13 18:17N 33°45' W 118°16'0 0.0
2017-Oct-13 17:53N 33°45' W 118°16'0 0.0
2017-Oct-13 17:23N 33°45' W 118°16'0 0.0
2017-Oct-13 16:38N 33°45' W 118°16'0 0.0
2017-Oct-13 15:41N 33°45' W 118°16'0 0.0
2017-Oct-13 15:17N 33°45' W 118°16'0 0.0
2017-Oct-13 14:56N 33°45' W 118°16'0 0.0
2017-Oct-13 14:29N 33°45' W 118°16'0 0.0
2017-Oct-13 13:59N 33°45' W 118°16'0 0.0
2017-Oct-13 13:17N 33°45' W 118°16'0 0.0
2017-Oct-13 12:59N 33°45' W 118°16'0 0.0
2017-Oct-13 12:20N 33°45' W 118°16'0 0.0
2017-Oct-13 11:56N 33°45' W 118°16'0 0.0
2017-Oct-13 11:29N 33°45' W 118°16'0 0.0
2017-Oct-13 10:56N 33°45' W 118°16'0 0.0
2017-Oct-13 10:29N 33°45' W 118°16'0 0.0
2017-Oct-13 09:59N 33°45' W 118°16'0 0.0
2017-Oct-13 09:26N 33°45' W 118°16'0 0.0
2017-Oct-13 08:56N 33°45' W 118°16'0 0.0
2017-Oct-13 08:23N 33°45' W 118°16'0 0.0
2017-Oct-13 07:56N 33°45' W 118°16'0 0.0
2017-Oct-13 07:26N 33°45' W 118°16'0 0.0
2017-Oct-13 06:59N 33°45' W 118°16'0 0.0
2017-Oct-13 06:29N 33°45' W 118°16'0 0.0
2017-Oct-13 05:56N 33°45' W 118°16'0 0.1
2017-Oct-13 05:26N 33°45' W 118°16'0 0.1
2017-Oct-13 04:59N 33°45' W 118°16'0 0.0
2017-Oct-13 04:11N 33°45' W 118°16'0 0.0
2017-Oct-13 03:59N 33°45' W 118°16'0 0.0
2017-Oct-13 03:23N 33°45' W 118°16'0 0.0
2017-Oct-13 02:56N 33°45' W 118°16'0 0.0
2017-Oct-13 02:29N 33°45' W 118°16'0 0.0
2017-Oct-13 01:59N 33°45' W 118°16'0 0.0
2017-Oct-13 01:29N 33°45' W 118°16'0 0.0
2017-Oct-13 00:59N 33°45' W 118°16'0 0.0
2017-Oct-13 00:29N 33°45' W 118°16'0 0.0
2017-Oct-12 23:59N 33°45' W 118°16'0 0.0
2017-Oct-12 23:29N 33°45' W 118°16'0 0.0
2017-Oct-12 22:56N 33°45' W 118°16'0 0.0
2017-Oct-12 22:26N 33°45' W 118°16'0 0.0
2017-Oct-12 21:02N 33°45' W 118°16'0 0.0
2017-Oct-12 19:17N 33°45' W 118°16'0 0.0
2017-Oct-12 15:56N 33°45' W 118°16'0 0.0
2017-Oct-12 15:20N 33°45' W 118°16'0 0.0
2017-Oct-12 14:50N 33°45' W 118°16'0 0.0
2017-Oct-12 12:02N 33°45' W 118°16'0 0.0
2017-Oct-12 12:00N 33°45' W 118°16'1 1.9
2017-Oct-12 11:29N 33°45' W 118°16'3 5.8
2017-Oct-12 11:00N 33°42' W 118°15'4 7.8
2017-Oct-12 10:30N 33°39' W 118°14'3 5.2
2017-Oct-12 10:00N 33°37' W 118°16'5 9.3
2017-Oct-12 09:31N 33°36' W 118°21'510.8
2017-Oct-12 09:00N 33°39' W 118°27'510.8
2017-Oct-12 08:30N 33°42' W 118°32'510.6
2017-Oct-12 08:01N 33°45' W 118°38'510.9
2017-Oct-12 07:31N 33°47' W 118°44'510.8
2017-Oct-12 07:00N 33°50' W 118°49'611.6
2017-Oct-12 06:30N 33°53' W 118°55'611.6
2017-Oct-12 06:01N 33°56' W 119°01'611.6
2017-Oct-12 05:31N 33°59' W 119°08'611.5
2017-Oct-12 05:00N 34°01' W 119°14'612.1
2017-Oct-12 04:30N 34°03' W 119°21'611.9
2017-Oct-12 04:00N 34°05' W 119°28'612.4
2017-Oct-12 03:30N 34°06' W 119°35'612.4
2017-Oct-12 03:00N 34°08' W 119°42'612.4
2017-Oct-12 02:30N 34°10' W 119°49'612.5
2017-Oct-12 02:01N 34°11' W 119°57'612.2
2017-Oct-12 01:30N 34°13' W 120°04'612.3
2017-Oct-12 01:00N 34°15' W 120°11'712.6
2017-Oct-12 00:29N 34°17' W 120°19'612.7
2017-Oct-12 00:00N 34°18' W 120°26'611.4
2017-Oct-11 23:31N 34°19' W 120°32'5 9.8
2017-Oct-11 23:00N 34°21' W 120°38'5 9.6
2017-Oct-11 22:30N 34°22' W 120°44'5 9.8
2017-Oct-11 22:00N 34°24' W 120°49'510.5
2017-Oct-11 21:30N 34°25' W 120°55'3 6.4
2017-Oct-11 20:59N 34°26' W 120°59'0 0.6
2017-Oct-11 20:30N 34°26' W 120°60'0 0.5
2017-Oct-11 20:00N 34°26' W 120°60'0 0.7
2017-Oct-11 19:30N 34°26' W 121°00'2 5.0
2017-Oct-11 19:00N 34°28' W 121°02'5 9.3
2017-Oct-11 18:30N 34°30' W 121°07'510.7
2017-Oct-11 18:00N 34°33' W 121°13'714.0
2017-Oct-11 17:30N 34°37' W 121°20'713.9
2017-Oct-11 17:01N 34°41' W 121°27'28414.5
2017-Oct-10 21:28N 37°16' W 126°21'5113.8
2017-Oct-10 17:45N 37°45' W 127°14'513.8
2017-Oct-10 17:24N 37°48' W 127°19'613.8
2017-Oct-10 16:56N 37°51' W 127°26'  

Dump ship's entire track history